sensor_id;sensor_type;location;lat;lon;timestamp;temperature;humidity
56436;DHT22;42335;44.872;20.658;2024-02-14T00:00:08;230.90;2252.80
56436;DHT22;42335;44.872;20.658;2024-02-14T00:02:40;230.90;2252.80
56436;DHT22;42335;44.872;20.658;2024-02-14T00:05:07;230.90;2252.80
56436;DHT22;42335;44.872;20.658;2024-02-14T00:07:33;230.90;2252.80
56436;DHT22;42335;44.872;20.658;2024-02-14T00:09:58;230.90;2252.80
56436;DHT22;42335;44.872;20.658;2024-02-14T00:12:24;230.90;2252.80
56436;DHT22;42335;44.872;20.658;2024-02-14T00:14:50;230.90;2252.80
56436;DHT22;42335;44.872;20.658;2024-02-14T00:17:16;230.90;2252.80
56436;DHT22;42335;44.872;20.658;2024-02-14T00:19:42;230.80;2252.80
56436;DHT22;42335;44.872;20.658;2024-02-14T00:22:07;230.80;2252.80
56436;DHT22;42335;44.872;20.658;2024-02-14T00:24:33;230.80;2252.80
56436;DHT22;42335;44.872;20.658;2024-02-14T00:27:01;230.70;2252.80
56436;DHT22;42335;44.872;20.658;2024-02-14T00:29:28;230.80;2252.80
56436;DHT22;42335;44.872;20.658;2024-02-14T00:31:54;230.70;2252.80
56436;DHT22;42335;44.872;20.658;2024-02-14T00:34:20;230.70;2252.80
56436;DHT22;42335;44.872;20.658;2024-02-14T00:36:46;230.70;2252.80
56436;DHT22;42335;44.872;20.658;2024-02-14T00:39:12;230.70;2252.80
56436;DHT22;42335;44.872;20.658;2024-02-14T00:41:38;230.70;2252.80
56436;DHT22;42335;44.872;20.658;2024-02-14T00:44:03;230.60;2252.80
56436;DHT22;42335;44.872;20.658;2024-02-14T00:46:30;230.70;2252.80
56436;DHT22;42335;44.872;20.658;2024-02-14T00:48:56;230.60;2252.80
56436;DHT22;42335;44.872;20.658;2024-02-14T00:51:22;230.60;2252.80
56436;DHT22;42335;44.872;20.658;2024-02-14T00:53:48;230.60;2252.80
56436;DHT22;42335;44.872;20.658;2024-02-14T00:56:13;230.60;2252.80
56436;DHT22;42335;44.872;20.658;2024-02-14T00:58:39;230.60;2252.80
56436;DHT22;42335;44.872;20.658;2024-02-14T01:01:05;230.60;2252.80
56436;DHT22;42335;44.872;20.658;2024-02-14T01:03:31;230.50;2252.80
56436;DHT22;42335;44.872;20.658;2024-02-14T01:05:57;230.40;2252.80
56436;DHT22;42335;44.872;20.658;2024-02-14T01:08:23;205.70;2252.80
56436;DHT22;42335;44.872;20.658;2024-02-14T01:10:49;205.60;2252.80
56436;DHT22;42335;44.872;20.658;2024-02-14T01:13:17;205.60;2252.80
56436;DHT22;42335;44.872;20.658;2024-02-14T01:15:43;205.40;2252.80
56436;DHT22;42335;44.872;20.658;2024-02-14T01:18:09;205.30;2252.80
56436;DHT22;42335;44.872;20.658;2024-02-14T01:20:35;205.20;2252.80
56436;DHT22;42335;44.872;20.658;2024-02-14T01:23:03;205.10;2252.80
56436;DHT22;42335;44.872;20.658;2024-02-14T01:25:28;205.00;2252.80
56436;DHT22;42335;44.872;20.658;2024-02-14T01:27:54;204.90;2252.80
56436;DHT22;42335;44.872;20.658;2024-02-14T01:30:20;204.90;2252.80
56436;DHT22;42335;44.872;20.658;2024-02-14T01:32:46;204.80;2252.80
56436;DHT22;42335;44.872;20.658;2024-02-14T01:35:12;204.80;2252.80
56436;DHT22;42335;44.872;20.658;2024-02-14T01:37:38;180.10;2252.80
56436;DHT22;42335;44.872;20.658;2024-02-14T01:40:05;180.10;2252.80
56436;DHT22;42335;44.872;20.658;2024-02-14T01:42:32;180.00;2252.80
56436;DHT22;42335;44.872;20.658;2024-02-14T01:44:58;180.00;2252.80
56436;DHT22;42335;44.872;20.658;2024-02-14T01:47:24;180.00;2252.80
56436;DHT22;42335;44.872;20.658;2024-02-14T01:49:50;179.90;2252.80
56436;DHT22;42335;44.872;20.658;2024-02-14T01:52:16;179.90;2252.80
56436;DHT22;42335;44.872;20.658;2024-02-14T01:54:42;179.90;2252.80
56436;DHT22;42335;44.872;20.658;2024-02-14T01:57:09;179.90;2252.80
56436;DHT22;42335;44.872;20.658;2024-02-14T01:59:37;179.80;2252.80
56436;DHT22;42335;44.872;20.658;2024-02-14T02:02:04;179.80;2252.80
56436;DHT22;42335;44.872;20.658;2024-02-14T02:04:33;179.80;2252.80
56436;DHT22;42335;44.872;20.658;2024-02-14T02:06:59;179.80;2252.80
56436;DHT22;42335;44.872;20.658;2024-02-14T02:09:25;179.80;2252.80
56436;DHT22;42335;44.872;20.658;2024-02-14T02:11:51;179.80;2252.80
56436;DHT22;42335;44.872;20.658;2024-02-14T02:14:19;179.70;2252.80
56436;DHT22;42335;44.872;20.658;2024-02-14T02:16:46;179.70;2252.80
56436;DHT22;42335;44.872;20.658;2024-02-14T02:19:12;179.70;2252.80
56436;DHT22;42335;44.872;20.658;2024-02-14T02:21:39;179.80;2252.80
56436;DHT22;42335;44.872;20.658;2024-02-14T02:24:05;179.80;2252.80
56436;DHT22;42335;44.872;20.658;2024-02-14T02:26:31;179.80;2252.80
56436;DHT22;42335;44.872;20.658;2024-02-14T02:28:56;179.80;2252.80
56436;DHT22;42335;44.872;20.658;2024-02-14T02:31:22;179.80;2252.80
56436;DHT22;42335;44.872;20.658;2024-02-14T02:33:48;179.80;2252.80
56436;DHT22;42335;44.872;20.658;2024-02-14T02:36:15;179.90;2252.80
56436;DHT22;42335;44.872;20.658;2024-02-14T02:38:41;180.00;2252.80
56436;DHT22;42335;44.872;20.658;2024-02-14T02:41:07;180.00;2252.80
56436;DHT22;42335;44.872;20.658;2024-02-14T02:43:33;180.10;2252.80
56436;DHT22;42335;44.872;20.658;2024-02-14T02:45:59;180.10;2252.80
56436;DHT22;42335;44.872;20.658;2024-02-14T02:48:25;204.80;2252.80
56436;DHT22;42335;44.872;20.658;2024-02-14T02:50:51;204.80;2252.80
56436;DHT22;42335;44.872;20.658;2024-02-14T02:53:19;204.80;2252.80
56436;DHT22;42335;44.872;20.658;2024-02-14T02:55:45;204.80;2252.80
56436;DHT22;42335;44.872;20.658;2024-02-14T02:58:11;204.90;2252.80
56436;DHT22;42335;44.872;20.658;2024-02-14T03:00:37;204.90;2252.80
56436;DHT22;42335;44.872;20.658;2024-02-14T03:03:03;204.80;2252.80
56436;DHT22;42335;44.872;20.658;2024-02-14T03:05:30;204.90;2252.80
56436;DHT22;42335;44.872;20.658;2024-02-14T03:07:59;204.90;2252.80
56436;DHT22;42335;44.872;20.658;2024-02-14T03:10:26;204.90;2252.80
56436;DHT22;42335;44.872;20.658;2024-02-14T03:12:52;204.90;2252.80
56436;DHT22;42335;44.872;20.658;2024-02-14T03:15:18;204.90;2252.80
56436;DHT22;42335;44.872;20.658;2024-02-14T03:17:45;204.80;2252.80
56436;DHT22;42335;44.872;20.658;2024-02-14T03:20:12;180.10;2252.80
56436;DHT22;42335;44.872;20.658;2024-02-14T03:22:43;180.10;2252.80
56436;DHT22;42335;44.872;20.658;2024-02-14T03:25:19;180.10;2252.80
56436;DHT22;42335;44.872;20.658;2024-02-14T03:27:46;180.00;2252.80
56436;DHT22;42335;44.872;20.658;2024-02-14T03:30:14;179.90;2252.80
56436;DHT22;42335;44.872;20.658;2024-02-14T03:32:42;179.80;2252.80
56436;DHT22;42335;44.872;20.658;2024-02-14T03:35:08;179.80;2252.80
56436;DHT22;42335;44.872;20.658;2024-02-14T03:37:35;179.80;2252.80
56436;DHT22;42335;44.872;20.658;2024-02-14T03:40:04;179.80;2252.80
56436;DHT22;42335;44.872;20.658;2024-02-14T03:42:30;179.80;2252.80
56436;DHT22;42335;44.872;20.658;2024-02-14T03:44:56;179.90;2252.80
56436;DHT22;42335;44.872;20.658;2024-02-14T03:47:28;179.90;2252.80
56436;DHT22;42335;44.872;20.658;2024-02-14T03:49:58;179.90;2252.80
56436;DHT22;42335;44.872;20.658;2024-02-14T03:52:24;179.90;2252.80
56436;DHT22;42335;44.872;20.658;2024-02-14T03:54:50;179.90;2252.80
56436;DHT22;42335;44.872;20.658;2024-02-14T03:57:16;179.90;2252.80
56436;DHT22;42335;44.872;20.658;2024-02-14T03:59:46;179.90;2252.80
56436;DHT22;42335;44.872;20.658;2024-02-14T04:02:12;179.80;2252.80
56436;DHT22;42335;44.872;20.658;2024-02-14T04:04:41;179.90;2252.80
56436;DHT22;42335;44.872;20.658;2024-02-14T04:07:08;179.80;2252.80
56436;DHT22;42335;44.872;20.658;2024-02-14T04:09:34;179.80;2252.80
56436;DHT22;42335;44.872;20.658;2024-02-14T04:12:00;179.80;2252.80
56436;DHT22;42335;44.872;20.658;2024-02-14T04:14:26;179.70;2252.80
56436;DHT22;42335;44.872;20.658;2024-02-14T04:16:52;179.80;2252.80
56436;DHT22;42335;44.872;20.658;2024-02-14T04:19:18;179.80;2252.80
56436;DHT22;42335;44.872;20.658;2024-02-14T04:21:44;179.70;2252.80
56436;DHT22;42335;44.872;20.658;2024-02-14T04:24:10;179.70;2252.80
56436;DHT22;42335;44.872;20.658;2024-02-14T04:26:35;179.70;2252.80
56436;DHT22;42335;44.872;20.658;2024-02-14T04:29:01;179.70;2252.80
56436;DHT22;42335;44.872;20.658;2024-02-14T04:31:27;179.70;2252.80
56436;DHT22;42335;44.872;20.658;2024-02-14T04:33:55;179.70;2252.80
56436;DHT22;42335;44.872;20.658;2024-02-14T04:36:21;179.70;2252.80
56436;DHT22;42335;44.872;20.658;2024-02-14T04:38:50;179.70;2252.80
56436;DHT22;42335;44.872;20.658;2024-02-14T04:41:17;179.70;2252.80
56436;DHT22;42335;44.872;20.658;2024-02-14T04:43:43;179.70;2252.80
56436;DHT22;42335;44.872;20.658;2024-02-14T04:46:08;179.70;2252.80
56436;DHT22;42335;44.872;20.658;2024-02-14T04:48:35;179.60;2252.80
56436;DHT22;42335;44.872;20.658;2024-02-14T04:51:04;179.60;2252.80
56436;DHT22;42335;44.872;20.658;2024-02-14T04:53:31;179.60;2252.80
56436;DHT22;42335;44.872;20.658;2024-02-14T04:55:57;179.60;2252.80
56436;DHT22;42335;44.872;20.658;2024-02-14T04:58:23;179.60;2252.80
56436;DHT22;42335;44.872;20.658;2024-02-14T05:00:49;179.70;2252.80
56436;DHT22;42335;44.872;20.658;2024-02-14T05:03:14;179.70;2252.80
56436;DHT22;42335;44.872;20.658;2024-02-14T05:05:41;179.70;2252.80
56436;DHT22;42335;44.872;20.658;2024-02-14T05:08:07;179.70;2252.80
56436;DHT22;42335;44.872;20.658;2024-02-14T05:10:33;179.70;2252.80
56436;DHT22;42335;44.872;20.658;2024-02-14T05:12:58;179.70;2252.80
56436;DHT22;42335;44.872;20.658;2024-02-14T05:15:24;179.70;2252.80
56436;DHT22;42335;44.872;20.658;2024-02-14T05:17:50;179.80;2252.80
56436;DHT22;42335;44.872;20.658;2024-02-14T05:20:16;179.80;2252.80
56436;DHT22;42335;44.872;20.658;2024-02-14T05:22:42;179.80;2252.80
56436;DHT22;42335;44.872;20.658;2024-02-14T05:25:08;179.70;2252.80
56436;DHT22;42335;44.872;20.658;2024-02-14T05:27:37;179.60;2252.80
56436;DHT22;42335;44.872;20.658;2024-02-14T05:30:04;179.70;2252.80
56436;DHT22;42335;44.872;20.658;2024-02-14T05:32:35;179.70;2252.80
56436;DHT22;42335;44.872;20.658;2024-02-14T05:35:00;179.60;2252.80
56436;DHT22;42335;44.872;20.658;2024-02-14T05:37:29;179.60;2252.80
56436;DHT22;42335;44.872;20.658;2024-02-14T05:39:55;179.70;2252.80
56436;DHT22;42335;44.872;20.658;2024-02-14T05:42:21;179.60;2252.80
56436;DHT22;42335;44.872;20.658;2024-02-14T05:44:48;179.60;2252.80
56436;DHT22;42335;44.872;20.658;2024-02-14T05:47:14;179.60;2252.80
56436;DHT22;42335;44.872;20.658;2024-02-14T05:49:40;179.60;2252.80
56436;DHT22;42335;44.872;20.658;2024-02-14T05:52:07;179.50;2252.80
56436;DHT22;42335;44.872;20.658;2024-02-14T05:54:33;179.50;2252.80
56436;DHT22;42335;44.872;20.658;2024-02-14T05:56:59;179.50;2252.80
56436;DHT22;42335;44.872;20.658;2024-02-14T05:59:25;179.40;2252.80
56436;DHT22;42335;44.872;20.658;2024-02-14T06:01:51;179.50;2252.80
56436;DHT22;42335;44.872;20.658;2024-02-14T06:04:16;179.50;2252.80
56436;DHT22;42335;44.872;20.658;2024-02-14T06:06:44;179.50;2252.80
56436;DHT22;42335;44.872;20.658;2024-02-14T06:09:12;179.60;2252.80
56436;DHT22;42335;44.872;20.658;2024-02-14T06:11:39;179.70;2252.80
56436;DHT22;42335;44.872;20.658;2024-02-14T06:14:06;179.70;2252.80
56436;DHT22;42335;44.872;20.658;2024-02-14T06:16:32;179.60;2252.80
56436;DHT22;42335;44.872;20.658;2024-02-14T06:18:58;179.60;2252.80
56436;DHT22;42335;44.872;20.658;2024-02-14T06:21:24;179.70;2252.80
56436;DHT22;42335;44.872;20.658;2024-02-14T06:23:51;179.70;2252.80
56436;DHT22;42335;44.872;20.658;2024-02-14T06:26:16;179.70;2252.80
56436;DHT22;42335;44.872;20.658;2024-02-14T06:28:44;179.70;2252.80
56436;DHT22;42335;44.872;20.658;2024-02-14T06:31:13;179.80;2252.80
56436;DHT22;42335;44.872;20.658;2024-02-14T06:33:39;179.80;2252.80
56436;DHT22;42335;44.872;20.658;2024-02-14T06:36:05;179.80;2252.80
56436;DHT22;42335;44.872;20.658;2024-02-14T06:38:31;179.90;2252.80
56436;DHT22;42335;44.872;20.658;2024-02-14T06:40:57;179.90;2252.80
56436;DHT22;42335;44.872;20.658;2024-02-14T06:43:23;180.00;2252.80
56436;DHT22;42335;44.872;20.658;2024-02-14T06:45:48;180.10;2252.80
56436;DHT22;42335;44.872;20.658;2024-02-14T06:48:14;204.80;2252.80
56436;DHT22;42335;44.872;20.658;2024-02-14T06:50:40;204.80;2252.80
56436;DHT22;42335;44.872;20.658;2024-02-14T06:53:06;205.00;2252.80
56436;DHT22;42335;44.872;20.658;2024-02-14T06:55:32;205.10;2252.80
56436;DHT22;42335;44.872;20.658;2024-02-14T06:58:01;205.20;2252.80
56436;DHT22;42335;44.872;20.658;2024-02-14T07:00:27;205.50;2252.80
56436;DHT22;42335;44.872;20.658;2024-02-14T07:02:54;230.50;2252.80
56436;DHT22;42335;44.872;20.658;2024-02-14T07:05:19;231.00;2252.80
56436;DHT22;42335;44.872;20.658;2024-02-14T07:07:45;256.20;2201.60
56436;DHT22;42335;44.872;20.658;2024-02-14T07:10:11;282.00;2073.60
56436;DHT22;42335;44.872;20.658;2024-02-14T07:12:38;307.60;1945.60
56436;DHT22;42335;44.872;20.658;2024-02-14T07:19:57;538.30;1177.60
56436;DHT22;42335;44.872;20.658;2024-02-14T07:22:23;589.50;1075.20
56436;DHT22;42335;44.872;20.658;2024-02-14T07:24:48;640.20;972.80
56436;DHT22;42335;44.872;20.658;2024-02-14T07:27:15;640.90;947.20
56436;DHT22;42335;44.872;20.658;2024-02-14T07:29:42;691.90;870.40
56436;DHT22;42335;44.872;20.658;2024-02-14T07:32:08;717.20;844.80
56436;DHT22;42335;44.872;20.658;2024-02-14T07:34:33;743.10;819.20
56436;DHT22;42335;44.872;20.658;2024-02-14T07:36:59;768.50;768.00
56436;DHT22;42335;44.872;20.658;2024-02-14T07:39:25;793.90;768.00
56436;DHT22;42335;44.872;20.658;2024-02-14T07:41:51;819.50;716.80
56436;DHT22;42335;44.872;20.658;2024-02-14T07:44:17;819.80;691.20
56436;DHT22;42335;44.872;20.658;2024-02-14T07:46:43;844.90;691.20
56436;DHT22;42335;44.872;20.658;2024-02-14T07:49:09;845.70;691.20
56436;DHT22;42335;44.872;20.658;2024-02-14T07:51:35;871.00;614.40
56436;DHT22;42335;44.872;20.658;2024-02-14T07:54:06;870.60;640.00
56436;DHT22;42335;44.872;20.658;2024-02-14T07:56:32;896.20;614.40
56436;DHT22;42335;44.872;20.658;2024-02-14T07:58:58;922.30;588.80
56436;DHT22;42335;44.872;20.658;2024-02-14T08:01:25;948.10;537.60
56436;DHT22;42335;44.872;20.658;2024-02-14T08:03:51;973.20;537.60
56436;DHT22;42335;44.872;20.658;2024-02-14T08:06:17;973.20;537.60
56436;DHT22;42335;44.872;20.658;2024-02-14T08:08:43;999.30;512.00
56436;DHT22;42335;44.872;20.658;2024-02-14T08:11:11;1024.00;512.00
56436;DHT22;42335;44.872;20.658;2024-02-14T08:13:37;947.60;537.60
56436;DHT22;42335;44.872;20.658;2024-02-14T08:16:06;998.60;512.00
56436;DHT22;42335;44.872;20.658;2024-02-14T08:18:32;998.90;512.00
56436;DHT22;42335;44.872;20.658;2024-02-14T08:20:58;1049.80;486.40
56436;DHT22;42335;44.872;20.658;2024-02-14T08:23:23;1050.30;460.80
56436;DHT22;42335;44.872;20.658;2024-02-14T08:25:49;1050.50;460.80
56436;DHT22;42335;44.872;20.658;2024-02-14T08:28:15;1075.30;460.80
56436;DHT22;42335;44.872;20.658;2024-02-14T08:30:44;1050.30;460.80
56436;DHT22;42335;44.872;20.658;2024-02-14T08:33:09;1075.70;435.20
56436;DHT22;42335;44.872;20.658;2024-02-14T08:35:36;1101.40;435.20
56436;DHT22;42335;44.872;20.658;2024-02-14T08:38:03;1101.40;435.20
56436;DHT22;42335;44.872;20.658;2024-02-14T08:40:29;1101.30;435.20
56436;DHT22;42335;44.872;20.658;2024-02-14T08:42:55;1126.90;435.20
56436;DHT22;42335;44.872;20.658;2024-02-14T08:45:20;1152.40;409.60
56436;DHT22;42335;44.872;20.658;2024-02-14T08:47:46;1178.10;409.60
56436;DHT22;42335;44.872;20.658;2024-02-14T08:50:12;1203.20;435.20
56436;DHT22;42335;44.872;20.658;2024-02-14T08:52:38;1204.10;435.20
56436;DHT22;42335;44.872;20.658;2024-02-14T08:55:04;1228.80;460.80
56436;DHT22;42335;44.872;20.658;2024-02-14T08:57:32;1228.90;460.80
56436;DHT22;42335;44.872;20.658;2024-02-14T08:59:58;1203.60;435.20
56436;DHT22;42335;44.872;20.658;2024-02-14T09:02:24;1203.40;435.20
56436;DHT22;42335;44.872;20.658;2024-02-14T09:04:51;1228.90;460.80
56436;DHT22;42335;44.872;20.658;2024-02-14T09:07:16;1229.00;460.80
56436;DHT22;42335;44.872;20.658;2024-02-14T09:09:42;1229.00;460.80
56436;DHT22;42335;44.872;20.658;2024-02-14T09:12:08;1229.50;460.80
56436;DHT22;42335;44.872;20.658;2024-02-14T09:14:33;1229.70;460.80
56436;DHT22;42335;44.872;20.658;2024-02-14T09:16:59;1280.00;486.40
56436;DHT22;42335;44.872;20.658;2024-02-14T09:19:25;1280.00;486.40
56436;DHT22;42335;44.872;20.658;2024-02-14T09:21:52;1280.20;486.40
56436;DHT22;42335;44.872;20.658;2024-02-14T09:24:18;1280.50;486.40
56436;DHT22;42335;44.872;20.658;2024-02-14T09:26:44;1305.90;486.40
56436;DHT22;42335;44.872;20.658;2024-02-14T09:29:09;1306.30;486.40
56436;DHT22;42335;44.872;20.658;2024-02-14T09:31:38;1306.00;486.40
56436;DHT22;42335;44.872;20.658;2024-02-14T09:34:03;1331.40;512.00
56436;DHT22;42335;44.872;20.658;2024-02-14T09:36:29;1356.80;537.60
56436;DHT22;42335;44.872;20.658;2024-02-14T09:38:55;1356.90;537.60
56436;DHT22;42335;44.872;20.658;2024-02-14T09:43:52;1331.90;512.00
56436;DHT22;42335;44.872;20.658;2024-02-14T09:46:18;1357.70;537.60
56436;DHT22;42335;44.872;20.658;2024-02-14T09:48:45;1357.20;537.60
56436;DHT22;42335;44.872;20.658;2024-02-14T09:51:12;1382.60;563.20
56436;DHT22;42335;44.872;20.658;2024-02-14T09:53:39;1357.40;537.60
56436;DHT22;42335;44.872;20.658;2024-02-14T09:56:06;1382.90;563.20
56436;DHT22;42335;44.872;20.658;2024-02-14T09:58:32;1382.40;563.20
56436;DHT22;42335;44.872;20.658;2024-02-14T10:01:00;1357.70;537.60
56436;DHT22;42335;44.872;20.658;2024-02-14T10:03:27;1408.00;563.20
56436;DHT22;42335;44.872;20.658;2024-02-14T10:05:53;1383.10;563.20
56436;DHT22;42335;44.872;20.658;2024-02-14T10:08:19;1382.90;563.20
56436;DHT22;42335;44.872;20.658;2024-02-14T10:10:47;1382.80;563.20
56436;DHT22;42335;44.872;20.658;2024-02-14T10:13:13;1408.40;563.20
56436;DHT22;42335;44.872;20.658;2024-02-14T10:15:38;1408.90;563.20
56436;DHT22;42335;44.872;20.658;2024-02-14T10:18:04;1408.20;563.20
56436;DHT22;42335;44.872;20.658;2024-02-14T10:20:30;1408.90;563.20
56436;DHT22;42335;44.872;20.658;2024-02-14T10:23:02;1408.40;563.20
56436;DHT22;42335;44.872;20.658;2024-02-14T10:25:29;1408.90;563.20
56436;DHT22;42335;44.872;20.658;2024-02-14T10:27:55;1408.70;563.20
56436;DHT22;42335;44.872;20.658;2024-02-14T10:30:20;1433.90;588.80
56436;DHT22;42335;44.872;20.658;2024-02-14T10:32:47;1434.30;588.80
56436;DHT22;42335;44.872;20.658;2024-02-14T10:35:14;1459.30;614.40
56436;DHT22;42335;44.872;20.658;2024-02-14T10:37:41;1484.80;640.00
56436;DHT22;42335;44.872;20.658;2024-02-14T10:40:08;1459.50;614.40
56436;DHT22;42335;44.872;20.658;2024-02-14T10:42:35;1459.70;614.40
56436;DHT22;42335;44.872;20.658;2024-02-14T10:45:02;1459.90;614.40
56436;DHT22;42335;44.872;20.658;2024-02-14T10:47:34;1459.50;614.40
56436;DHT22;42335;44.872;20.658;2024-02-14T10:50:05;1459.30;614.40
56436;DHT22;42335;44.872;20.658;2024-02-14T10:52:35;1459.30;614.40
56436;DHT22;42335;44.872;20.658;2024-02-14T10:55:06;1459.90;614.40
56436;DHT22;42335;44.872;20.658;2024-02-14T10:57:33;1459.50;614.40
56436;DHT22;42335;44.872;20.658;2024-02-14T11:00:06;1434.10;588.80
56436;DHT22;42335;44.872;20.658;2024-02-14T11:02:33;1434.10;588.80
56436;DHT22;42335;44.872;20.658;2024-02-14T11:04:59;1254.50;486.40
56436;DHT22;42335;44.872;20.658;2024-02-14T11:07:28;1331.20;512.00
56436;DHT22;42335;44.872;20.658;2024-02-14T11:10:04;1357.70;537.60
56436;DHT22;42335;44.872;20.658;2024-02-14T11:12:40;1408.50;563.20
56436;DHT22;42335;44.872;20.658;2024-02-14T11:15:16;1331.90;512.00
56436;DHT22;42335;44.872;20.658;2024-02-14T11:17:43;1356.90;537.60
56436;DHT22;42335;44.872;20.658;2024-02-14T11:22:39;922.30;435.20
56436;DHT22;42335;44.872;20.658;2024-02-14T11:25:14;1075.30;358.40
56436;DHT22;42335;44.872;20.658;2024-02-14T11:27:47;1178.10;409.60
56436;DHT22;42335;44.872;20.658;2024-02-14T11:30:12;1254.60;486.40
56436;DHT22;42335;44.872;20.658;2024-02-14T11:32:40;1177.60;409.60
56436;DHT22;42335;44.872;20.658;2024-02-14T11:35:11;1050.40;384.00
56436;DHT22;42335;44.872;20.658;2024-02-14T11:37:38;1152.00;409.60
56436;DHT22;42335;44.872;20.658;2024-02-14T11:40:04;1229.20;460.80
56436;DHT22;42335;44.872;20.658;2024-02-14T11:42:32;1280.00;486.40
56436;DHT22;42335;44.872;20.658;2024-02-14T11:44:58;1331.20;512.00
56436;DHT22;42335;44.872;20.658;2024-02-14T11:47:24;1356.80;537.60
56436;DHT22;42335;44.872;20.658;2024-02-14T11:49:50;1331.60;512.00
56436;DHT22;42335;44.872;20.658;2024-02-14T11:52:17;1356.80;537.60
56436;DHT22;42335;44.872;20.658;2024-02-14T11:54:47;1382.90;563.20
56436;DHT22;42335;44.872;20.658;2024-02-14T11:57:18;1280.90;486.40
56436;DHT22;42335;44.872;20.658;2024-02-14T11:59:44;1356.90;537.60
56436;DHT22;42335;44.872;20.658;2024-02-14T12:02:14;1356.90;537.60
56436;DHT22;42335;44.872;20.658;2024-02-14T12:04:40;1356.90;537.60
56436;DHT22;42335;44.872;20.658;2024-02-14T12:07:06;1356.90;537.60
56436;DHT22;42335;44.872;20.658;2024-02-14T12:09:32;1357.10;537.60
56436;DHT22;42335;44.872;20.658;2024-02-14T12:11:57;1280.50;486.40
56436;DHT22;42335;44.872;20.658;2024-02-14T12:14:23;1305.90;486.40
56436;DHT22;42335;44.872;20.658;2024-02-14T12:16:59;1331.40;512.00
56436;DHT22;42335;44.872;20.658;2024-02-14T12:19:26;1280.00;486.40
56436;DHT22;42335;44.872;20.658;2024-02-14T12:21:52;1126.80;409.60
56436;DHT22;42335;44.872;20.658;2024-02-14T12:24:18;973.60;409.60
56436;DHT22;42335;44.872;20.658;2024-02-14T12:26:44;870.90;486.40
56436;DHT22;42335;44.872;20.658;2024-02-14T12:29:13;794.50;563.20
56436;DHT22;42335;44.872;20.658;2024-02-14T12:31:39;743.10;640.00
56436;DHT22;42335;44.872;20.658;2024-02-14T12:34:05;716.80;640.00
56436;DHT22;42335;44.872;20.658;2024-02-14T12:36:31;666.40;665.60
56436;DHT22;42335;44.872;20.658;2024-02-14T12:39:03;640.80;691.20
56436;DHT22;42335;44.872;20.658;2024-02-14T12:41:30;640.30;716.80
56436;DHT22;42335;44.872;20.658;2024-02-14T12:43:56;614.80;742.40
56436;DHT22;42335;44.872;20.658;2024-02-14T12:46:22;589.20;793.60
56436;DHT22;42335;44.872;20.658;2024-02-14T12:48:48;563.80;819.20
56436;DHT22;42335;44.872;20.658;2024-02-14T12:51:15;563.40;844.80
56436;DHT22;42335;44.872;20.658;2024-02-14T12:53:41;537.70;896.00
56436;DHT22;42335;44.872;20.658;2024-02-14T12:56:07;512.60;896.00
56436;DHT22;42335;44.872;20.658;2024-02-14T12:58:33;487.30;921.60
56436;DHT22;42335;44.872;20.658;2024-02-14T13:03:25;486.50;998.40
56436;DHT22;42335;44.872;20.658;2024-02-14T13:05:51;461.50;1024.00
56436;DHT22;42335;44.872;20.658;2024-02-14T13:08:19;461.10;1049.60
56436;DHT22;42335;44.872;20.658;2024-02-14T13:10:45;461.00;1049.60
56436;DHT22;42335;44.872;20.658;2024-02-14T13:20:33;435.90;1075.20
56436;DHT22;42335;44.872;20.658;2024-02-14T13:22:59;435.80;1075.20
56436;DHT22;42335;44.872;20.658;2024-02-14T13:25:25;435.90;1075.20
56436;DHT22;42335;44.872;20.658;2024-02-14T13:27:51;435.50;1100.80
56436;DHT22;42335;44.872;20.658;2024-02-14T13:30:17;435.30;1126.40
56436;DHT22;42335;44.872;20.658;2024-02-14T13:32:44;435.80;1100.80
56436;DHT22;42335;44.872;20.658;2024-02-14T13:35:10;435.80;1075.20
56436;DHT22;42335;44.872;20.658;2024-02-14T13:37:39;435.90;1075.20
56436;DHT22;42335;44.872;20.658;2024-02-14T13:40:05;436.00;1075.20
56436;DHT22;42335;44.872;20.658;2024-02-14T13:42:36;436.10;1075.20
56436;DHT22;42335;44.872;20.658;2024-02-14T13:45:04;435.90;1075.20
56436;DHT22;42335;44.872;20.658;2024-02-14T13:47:31;436.10;1049.60
56436;DHT22;42335;44.872;20.658;2024-02-14T13:49:57;435.80;1049.60
56436;DHT22;42335;44.872;20.658;2024-02-14T13:52:22;435.30;1075.20
56436;DHT22;42335;44.872;20.658;2024-02-14T13:54:48;410.50;1126.40
56436;DHT22;42335;44.872;20.658;2024-02-14T13:57:14;410.00;1126.40
56436;DHT22;42335;44.872;20.658;2024-02-14T13:59:39;409.70;1152.00
56436;DHT22;42335;44.872;20.658;2024-02-14T14:02:05;384.90;1152.00
56436;DHT22;42335;44.872;20.658;2024-02-14T14:04:31;384.70;1177.60
56436;DHT22;42335;44.872;20.658;2024-02-14T14:06:57;384.50;1177.60
56436;DHT22;42335;44.872;20.658;2024-02-14T14:09:25;384.40;1177.60
56436;DHT22;42335;44.872;20.658;2024-02-14T14:11:52;384.70;1177.60
56436;DHT22;42335;44.872;20.658;2024-02-14T14:14:18;384.70;1177.60
56436;DHT22;42335;44.872;20.658;2024-02-14T14:16:44;384.60;1177.60
56436;DHT22;42335;44.872;20.658;2024-02-14T14:19:10;384.60;1177.60
56436;DHT22;42335;44.872;20.658;2024-02-14T14:21:36;384.50;1177.60
56436;DHT22;42335;44.872;20.658;2024-02-14T14:24:04;384.50;1177.60
56436;DHT22;42335;44.872;20.658;2024-02-14T14:26:29;384.30;1177.60
56436;DHT22;42335;44.872;20.658;2024-02-14T14:28:55;384.40;1177.60
56436;DHT22;42335;44.872;20.658;2024-02-14T14:31:21;384.60;1177.60
56436;DHT22;42335;44.872;20.658;2024-02-14T14:33:46;384.40;1177.60
56436;DHT22;42335;44.872;20.658;2024-02-14T14:36:14;384.60;1177.60
56436;DHT22;42335;44.872;20.658;2024-02-14T14:38:40;384.40;1177.60
56436;DHT22;42335;44.872;20.658;2024-02-14T14:41:06;384.40;1177.60
56436;DHT22;42335;44.872;20.658;2024-02-14T14:43:32;384.20;1177.60
56436;DHT22;42335;44.872;20.658;2024-02-14T14:45:57;384.00;1203.20
56436;DHT22;42335;44.872;20.658;2024-02-14T14:48:23;359.10;1203.20
56436;DHT22;42335;44.872;20.658;2024-02-14T14:50:49;359.00;1254.40